createdAt,value
2023-05-14T00:01:48.368Z,32.97
2023-05-14T00:04:15.331Z,35.00
2023-05-14T00:06:42.508Z,34.33
2023-05-14T00:09:09.517Z,34.85
2023-05-14T00:11:36.865Z,33.95
2023-05-14T00:14:05.270Z,33.75
2023-05-14T00:16:33.587Z,34.85
2023-05-14T00:19:00.646Z,33.03
2023-05-14T00:21:27.856Z,33.92
2023-05-14T00:23:55.253Z,34.45
2023-05-14T00:26:22.538Z,34.97
2023-05-14T00:28:49.914Z,34.38
2023-05-14T00:31:16.973Z,35.78
2023-05-14T00:33:44.086Z,35.30
2023-05-14T00:36:11.456Z,34.88
2023-05-14T00:38:39.674Z,35.65
2023-05-14T00:41:06.675Z,35.65
2023-05-14T00:43:33.701Z,36.28
2023-05-14T00:46:01.028Z,36.33
2023-05-14T00:48:28.180Z,35.58
2023-05-14T00:50:55.446Z,35.58
2023-05-14T00:53:22.541Z,34.92
2023-05-14T00:55:50.536Z,37.00
2023-05-14T00:58:19.774Z,39.13
2023-05-14T01:00:46.867Z,37.67
2023-05-14T01:03:13.970Z,37.53
2023-05-14T01:05:52.852Z,38.25
2023-05-14T01:08:46.388Z,38.28
2023-05-14T01:11:44.947Z,37.53
2023-05-14T01:14:42.803Z,35.75
2023-05-14T01:17:15.418Z,39.08
2023-05-14T01:19:44.595Z,39.08
2023-05-14T01:22:12.172Z,39.00
2023-05-14T01:24:39.991Z,36.17
2023-05-14T01:27:18.701Z,36.70
2023-05-14T01:29:55.558Z,36.58
2023-05-14T01:32:24.777Z,39.40
2023-05-14T01:34:53.650Z,36.45
2023-05-14T01:37:21.743Z,35.33
2023-05-14T01:39:49.942Z,38.53
2023-05-14T01:42:17.265Z,37.22
2023-05-14T01:44:44.882Z,37.25
2023-05-14T01:47:11.865Z,35.92
2023-05-14T01:49:38.859Z,35.85
2023-05-14T01:52:07.450Z,34.53
2023-05-14T01:54:34.737Z,36.17
2023-05-14T01:57:01.705Z,38.28
2023-05-14T01:59:29.985Z,37.17
2023-05-14T02:01:56.995Z,36.28
2023-05-14T02:04:24.364Z,37.55
2023-05-14T02:06:51.696Z,38.08
2023-05-14T02:09:18.662Z,40.85
2023-05-14T02:11:45.566Z,39.03
2023-05-14T02:14:12.627Z,38.90
2023-05-14T02:16:39.531Z,40.97
2023-05-14T02:19:06.558Z,38.95
2023-05-14T02:21:33.665Z,41.00
2023-05-14T02:24:00.686Z,44.38
2023-05-14T02:26:27.657Z,45.97
2023-05-14T02:28:54.990Z,40.50
2023-05-14T02:31:22.281Z,45.08
2023-05-14T02:33:49.837Z,40.85
2023-05-14T02:36:16.883Z,48.72
2023-05-14T02:38:43.919Z,43.63
2023-05-14T02:41:10.915Z,42.67
2023-05-14T02:43:37.901Z,40.70
2023-05-14T02:46:05.142Z,46.15
2023-05-14T02:48:32.151Z,44.50
2023-05-14T02:50:59.143Z,41.80
2023-05-14T02:53:26.238Z,41.47
2023-05-14T02:55:53.413Z,42.53
2023-05-14T02:58:20.650Z,43.47
2023-05-14T03:00:54.753Z,42.30
2023-05-14T03:03:22.429Z,42.72
2023-05-14T03:05:50.041Z,42.58
2023-05-14T03:08:17.069Z,40.33
2023-05-14T03:10:44.089Z,38.50
2023-05-14T03:13:11.305Z,44.53
2023-05-14T03:15:38.483Z,45.05
2023-05-14T03:18:07.032Z,41.28
2023-05-14T03:20:34.025Z,40.97
2023-05-14T03:23:00.977Z,39.95
2023-05-14T03:25:28.022Z,39.40
2023-05-14T03:27:54.921Z,38.92
2023-05-14T03:30:22.265Z,38.38
2023-05-14T03:32:50.129Z,38.65
2023-05-14T03:35:17.418Z,38.58
2023-05-14T03:37:44.504Z,36.92
2023-05-14T03:40:12.271Z,41.35
2023-05-14T03:42:39.281Z,38.63
2023-05-14T03:45:07.179Z,38.85
2023-05-14T03:47:34.542Z,37.30
2023-05-14T03:50:01.626Z,37.45
2023-05-14T03:52:28.622Z,36.17
2023-05-14T03:54:56.006Z,36.15
2023-05-14T03:57:23.311Z,34.95
2023-05-14T03:59:50.322Z,35.55
2023-05-14T04:02:17.343Z,35.40
2023-05-14T04:04:44.393Z,35.72
2023-05-14T04:07:11.685Z,37.83
2023-05-14T04:09:38.772Z,36.55
2023-05-14T04:12:06.338Z,34.90
2023-05-14T04:14:33.317Z,34.20
2023-05-14T04:17:01.396Z,35.80
2023-05-14T04:19:28.499Z,36.80
2023-05-14T04:21:55.456Z,35.22
2023-05-14T04:24:22.427Z,35.63
2023-05-14T04:26:49.438Z,33.83
2023-05-14T04:29:16.807Z,36.17
2023-05-14T04:31:44.321Z,37.08
2023-05-14T04:34:11.453Z,33.63
2023-05-14T04:36:38.541Z,34.90
2023-05-14T04:39:06.166Z,34.17
2023-05-14T04:41:33.404Z,34.20
2023-05-14T04:44:02.104Z,33.92
2023-05-14T04:46:29.236Z,32.88
2023-05-14T04:48:56.756Z,34.67
2023-05-14T04:51:24.312Z,34.17
2023-05-14T04:53:51.266Z,32.65
2023-05-14T04:56:18.276Z,33.92
2023-05-14T04:58:45.224Z,33.40
2023-05-14T05:01:12.412Z,32.33
2023-05-14T05:03:39.437Z,32.35
2023-05-14T05:06:06.868Z,34.65
2023-05-14T05:08:33.876Z,31.27
2023-05-14T05:11:01.879Z,32.00
2023-05-14T05:13:30.204Z,32.00
2023-05-14T05:15:57.162Z,31.73
2023-05-14T05:18:24.590Z,33.80
2023-05-14T05:20:51.778Z,31.95
2023-05-14T05:23:18.760Z,30.80
2023-05-14T05:25:45.884Z,30.30
2023-05-14T05:28:12.922Z,28.02
2023-05-14T05:30:40.477Z,29.17
2023-05-14T05:33:07.739Z,29.02
2023-05-14T05:35:36.246Z,28.50
2023-05-14T05:38:03.229Z,28.73
2023-05-14T05:40:30.264Z,27.52
2023-05-14T05:42:57.169Z,27.75
2023-05-14T05:45:24.286Z,27.38
2023-05-14T05:47:51.488Z,28.05
2023-05-14T05:50:19.893Z,27.40
2023-05-14T05:52:48.085Z,29.00
2023-05-14T05:55:15.080Z,26.67
2023-05-14T05:57:42.241Z,26.65
2023-05-14T06:00:16.059Z,26.20
2023-05-14T06:02:44.531Z,27.20
2023-05-14T06:05:11.979Z,31.27
2023-05-14T06:07:39.282Z,26.63
2023-05-14T06:10:06.983Z,26.90
2023-05-14T06:12:34.004Z,25.90
2023-05-14T06:15:00.994Z,26.20
2023-05-14T06:17:28.260Z,25.13
2023-05-14T06:19:55.306Z,25.95
2023-05-14T06:22:22.203Z,27.00
2023-05-14T06:24:49.306Z,25.90
2023-05-14T06:27:16.537Z,24.42
2023-05-14T06:29:43.518Z,23.95
2023-05-14T06:32:11.719Z,24.40
2023-05-14T06:34:38.715Z,24.10
2023-05-14T06:37:07.507Z,25.02
2023-05-14T06:39:34.515Z,25.17
2023-05-14T06:42:01.818Z,25.13
2023-05-14T06:44:30.112Z,24.23
2023-05-14T06:46:58.437Z,24.55
2023-05-14T06:49:25.602Z,24.70
2023-05-14T06:51:52.663Z,24.10
2023-05-14T06:54:20.593Z,23.52
2023-05-14T06:56:47.691Z,23.83
2023-05-14T06:59:14.751Z,23.08
2023-05-14T07:01:41.730Z,23.02
2023-05-14T07:04:08.804Z,22.38
2023-05-14T07:06:35.804Z,22.60
2023-05-14T07:09:03.639Z,22.38
2023-05-14T07:11:32.725Z,22.67
2023-05-14T07:14:00.060Z,22.65
2023-05-14T07:16:27.349Z,22.05
2023-05-14T07:18:54.332Z,21.55
2023-05-14T07:21:22.444Z,20.88
2023-05-14T07:23:51.126Z,21.08
2023-05-14T07:26:19.157Z,20.77
2023-05-14T07:28:46.236Z,20.63
2023-05-14T07:31:13.691Z,21.52
2023-05-14T07:33:40.768Z,22.05
2023-05-14T07:36:08.174Z,21.35
2023-05-14T07:38:35.295Z,21.58
2023-05-14T07:41:02.290Z,21.98
2023-05-14T07:43:29.231Z,21.08
2023-05-14T07:45:56.657Z,20.00
2023-05-14T07:48:23.846Z,20.70
2023-05-14T07:50:52.037Z,20.77
2023-05-14T07:53:19.084Z,22.63
2023-05-14T07:55:48.375Z,21.00
2023-05-14T07:58:16.659Z,22.00
2023-05-14T08:00:43.707Z,22.67
2023-05-14T08:03:10.965Z,21.95
2023-05-14T08:05:37.964Z,21.85
2023-05-14T08:08:05.034Z,21.90
2023-05-14T08:10:31.964Z,21.48
2023-05-14T08:12:59.010Z,20.90
2023-05-14T08:15:27.925Z,21.88
2023-05-14T08:17:55.240Z,21.23
2023-05-14T08:20:22.814Z,20.73
2023-05-14T08:22:50.356Z,21.05
2023-05-14T08:25:17.511Z,20.38
2023-05-14T08:27:44.585Z,21.02
2023-05-14T08:30:11.972Z,20.27
2023-05-14T08:32:39.701Z,18.73
2023-05-14T08:35:07.249Z,19.30
2023-05-14T08:37:34.314Z,19.55
2023-05-14T08:40:01.412Z,20.10
2023-05-14T08:42:29.591Z,20.05
2023-05-14T08:45:04.549Z,19.98
2023-05-14T08:47:32.131Z,19.83
2023-05-14T08:50:04.727Z,19.40
2023-05-14T08:52:32.435Z,19.15
2023-05-14T08:55:07.035Z,20.00
2023-05-14T08:57:35.886Z,20.25
2023-05-14T09:00:14.414Z,19.95
2023-05-14T09:02:42.851Z,20.27
2023-05-14T09:05:11.195Z,21.35
2023-05-14T09:07:38.538Z,20.30
2023-05-14T09:10:06.605Z,19.15
2023-05-14T09:12:33.586Z,20.13
2023-05-14T09:15:00.625Z,19.88
2023-05-14T09:17:28.480Z,19.48
2023-05-14T09:19:56.444Z,19.42
2023-05-14T09:22:23.468Z,20.73
2023-05-14T09:25:09.876Z,19.45
2023-05-14T09:27:36.843Z,20.23
2023-05-14T09:30:11.955Z,19.35
2023-05-14T09:32:40.863Z,19.77
2023-05-14T09:35:34.318Z,19.73
2023-05-14T09:38:01.703Z,19.33
2023-05-14T09:40:29.351Z,19.60
2023-05-14T09:42:56.642Z,19.17
2023-05-14T09:45:24.471Z,18.90
2023-05-14T09:47:53.232Z,19.15
2023-05-14T09:50:20.716Z,19.45
2023-05-14T09:52:49.508Z,19.60
2023-05-14T09:55:16.657Z,19.33
2023-05-14T09:57:44.710Z,19.38
2023-05-14T10:00:13.178Z,18.88
2023-05-14T10:02:41.998Z,18.92
2023-05-14T10:05:10.137Z,21.58
2023-05-14T10:07:42.995Z,20.27
2023-05-14T10:10:16.779Z,19.73
2023-05-14T10:12:55.572Z,19.75
2023-05-14T10:15:30.213Z,19.75
2023-05-14T10:18:02.486Z,19.13
2023-05-14T10:20:31.173Z,20.63
2023-05-14T10:22:59.139Z,19.58
2023-05-14T10:25:26.964Z,20.67
2023-05-14T10:27:54.761Z,20.02
2023-05-14T10:30:25.953Z,19.60
2023-05-14T10:33:12.431Z,20.05
2023-05-14T10:36:01.654Z,19.77
2023-05-14T10:38:31.031Z,20.35
2023-05-14T10:41:22.688Z,21.20
2023-05-14T10:43:50.691Z,21.38
2023-05-14T10:46:17.665Z,22.38
2023-05-14T10:48:45.458Z,21.30
2023-05-14T10:51:13.200Z,22.15
2023-05-14T10:53:44.166Z,22.55
2023-05-14T10:56:14.799Z,23.50
2023-05-14T10:58:45.946Z,24.05
2023-05-14T11:01:14.163Z,22.30
2023-05-14T11:03:46.759Z,22.23
2023-05-14T11:06:15.705Z,21.92
2023-05-14T11:08:44.090Z,22.10
2023-05-14T11:11:11.717Z,21.25
2023-05-14T11:13:40.013Z,21.15
2023-05-14T11:16:21.910Z,21.08
2023-05-14T11:19:02.043Z,21.92
2023-05-14T11:21:33.095Z,21.02
2023-05-14T11:24:04.451Z,21.90
2023-05-14T11:26:33.145Z,21.45
2023-05-14T11:29:00.564Z,22.70
2023-05-14T11:31:28.293Z,21.27
2023-05-14T11:33:56.065Z,20.15
2023-05-14T11:36:24.236Z,19.65
2023-05-14T11:38:52.540Z,20.60
2023-05-14T11:41:21.764Z,22.52
2023-05-14T11:43:49.130Z,22.48
2023-05-14T11:46:19.484Z,23.25
2023-05-14T11:48:46.857Z,19.73
2023-05-14T11:51:13.926Z,19.52
2023-05-14T11:53:41.031Z,19.63
2023-05-14T11:56:10.039Z,20.17
2023-05-14T11:58:38.272Z,20.38
2023-05-14T12:01:05.729Z,19.13
2023-05-14T12:03:32.844Z,19.33
2023-05-14T12:06:01.781Z,19.48
2023-05-14T12:08:32.980Z,20.05
2023-05-14T12:11:01.399Z,19.83
2023-05-14T12:13:31.525Z,19.95
2023-05-14T12:16:01.007Z,20.00
2023-05-14T12:18:31.651Z,19.20
2023-05-14T12:21:08.605Z,20.02
2023-05-14T12:23:35.899Z,20.30
2023-05-14T12:26:07.270Z,20.10
2023-05-14T12:28:39.157Z,19.90
2023-05-14T12:31:06.616Z,19.35
2023-05-14T12:33:33.817Z,20.25
2023-05-14T12:36:14.040Z,21.95
2023-05-14T12:38:49.573Z,21.05
2023-05-14T12:41:17.998Z,19.70
2023-05-14T12:43:47.755Z,19.60
2023-05-14T12:46:15.112Z,19.35
2023-05-14T12:48:43.407Z,18.95
2023-05-14T12:51:10.398Z,19.83
2023-05-14T12:53:37.428Z,21.70
2023-05-14T12:56:04.651Z,20.33
2023-05-14T12:58:31.575Z,19.38
2023-05-14T13:00:58.688Z,20.70
2023-05-14T13:03:26.878Z,19.98
2023-05-14T13:05:55.708Z,19.58
2023-05-14T13:08:25.784Z,20.80
2023-05-14T13:10:55.710Z,21.00
2023-05-14T13:13:23.393Z,19.75
2023-05-14T13:15:53.088Z,20.17
2023-05-14T13:18:20.106Z,19.73
2023-05-14T13:20:48.081Z,20.38
2023-05-14T13:23:16.089Z,20.58
2023-05-14T13:25:43.070Z,19.85
2023-05-14T13:28:10.465Z,20.70
2023-05-14T13:30:37.547Z,20.45
2023-05-14T13:33:05.483Z,20.35
2023-05-14T13:35:33.096Z,20.90
2023-05-14T13:38:00.133Z,20.80
2023-05-14T13:40:28.089Z,21.52
2023-05-14T13:42:55.060Z,21.70
2023-05-14T13:45:22.114Z,20.88
2023-05-14T13:47:51.634Z,21.05
2023-05-14T13:50:18.878Z,20.92
2023-05-14T13:52:45.862Z,21.38
2023-05-14T13:55:12.957Z,21.10
2023-05-14T13:57:43.133Z,21.00
2023-05-14T14:00:11.428Z,19.83
2023-05-14T14:02:38.499Z,20.85
2023-05-14T14:05:06.175Z,19.80
2023-05-14T14:07:33.259Z,19.77
2023-05-14T14:10:02.449Z,19.10
2023-05-14T14:12:29.681Z,19.73
2023-05-14T14:14:56.706Z,20.98
2023-05-14T14:17:23.729Z,20.40
2023-05-14T14:19:50.783Z,19.80
2023-05-14T14:22:17.984Z,20.33
2023-05-14T14:24:45.006Z,21.60
2023-05-14T14:27:12.324Z,21.60
2023-05-14T14:29:39.388Z,20.98
2023-05-14T14:32:07.142Z,20.77
2023-05-14T14:34:34.217Z,20.13
2023-05-14T14:37:02.989Z,20.67
2023-05-14T14:39:31.162Z,21.20
2023-05-14T14:41:58.193Z,20.63
2023-05-14T14:44:25.553Z,20.30
2023-05-14T14:46:52.459Z,18.73
2023-05-14T14:49:19.816Z,19.42
2023-05-14T14:51:47.130Z,19.75
2023-05-14T14:54:15.056Z,20.40
2023-05-14T14:56:43.451Z,22.45
2023-05-14T14:59:10.562Z,19.67
2023-05-14T15:01:37.688Z,18.92
2023-05-14T15:04:04.875Z,19.05
2023-05-14T15:06:31.861Z,18.70
2023-05-14T15:08:59.747Z,18.50
2023-05-14T15:11:27.040Z,18.95
2023-05-14T15:13:54.095Z,19.30
2023-05-14T15:16:21.200Z,19.60
2023-05-14T15:18:48.287Z,19.08
2023-05-14T15:21:15.374Z,19.83
2023-05-14T15:23:42.345Z,20.27
2023-05-14T15:26:09.369Z,19.15
2023-05-14T15:28:36.277Z,20.35
2023-05-14T15:31:03.638Z,18.73
2023-05-14T15:33:30.760Z,19.33
2023-05-14T15:35:57.757Z,20.02
2023-05-14T15:38:25.345Z,19.42
2023-05-14T15:40:52.351Z,19.52
2023-05-14T15:43:19.829Z,19.42
2023-05-14T15:45:46.882Z,18.70
2023-05-14T15:48:13.977Z,18.90
2023-05-14T15:50:41.134Z,19.90
2023-05-14T15:53:08.793Z,18.92
2023-05-14T15:55:36.347Z,19.35
2023-05-14T15:58:03.405Z,17.63
2023-05-14T16:00:30.377Z,19.17
2023-05-14T16:02:57.613Z,34.25
2023-05-14T16:05:24.677Z,19.55
2023-05-14T16:07:52.123Z,19.55
2023-05-14T16:10:21.595Z,18.92
2023-05-14T16:12:48.717Z,18.35
2023-05-14T16:15:15.857Z,18.73
2023-05-14T16:17:42.961Z,17.90
2023-05-14T16:20:10.923Z,19.27
2023-05-14T16:22:37.867Z,18.75
2023-05-14T16:25:05.965Z,18.45
2023-05-14T16:27:33.268Z,18.83
2023-05-14T16:30:00.278Z,18.80
2023-05-14T16:32:27.821Z,18.13
2023-05-14T16:34:56.546Z,17.92
2023-05-14T16:37:24.721Z,18.85
2023-05-14T16:39:51.713Z,19.20
2023-05-14T16:42:18.716Z,19.83
2023-05-14T16:44:45.712Z,20.52
2023-05-14T16:47:13.099Z,19.77
2023-05-14T16:49:40.161Z,19.20
2023-05-14T16:52:08.446Z,18.75
2023-05-14T16:54:36.020Z,18.23
2023-05-14T16:57:03.113Z,18.52
2023-05-14T16:59:30.145Z,17.77
2023-05-14T17:01:58.522Z,17.40
2023-05-14T17:04:26.695Z,16.45
2023-05-14T17:06:54.081Z,17.35
2023-05-14T17:09:21.146Z,17.95
2023-05-14T17:11:48.092Z,18.80
2023-05-14T17:14:15.449Z,19.13
2023-05-14T17:16:42.465Z,17.95
2023-05-14T17:19:09.534Z,18.45
2023-05-14T17:21:36.917Z,19.63
2023-05-14T17:24:04.004Z,17.90
2023-05-14T17:26:31.096Z,18.25
2023-05-14T17:28:58.030Z,18.20
2023-05-14T17:31:25.141Z,17.83
2023-05-14T17:33:52.324Z,18.13
2023-05-14T17:36:19.415Z,18.25
2023-05-14T17:38:46.697Z,22.77
2023-05-14T17:41:13.693Z,21.23
2023-05-14T17:43:40.594Z,19.73
2023-05-14T17:46:07.631Z,20.13
2023-05-14T17:48:34.634Z,19.55
2023-05-14T17:51:01.750Z,20.13
2023-05-14T17:53:28.738Z,21.45
2023-05-14T17:55:55.795Z,25.20
2023-05-14T17:58:22.793Z,22.02
2023-05-14T18:00:49.806Z,22.30
2023-05-14T18:03:20.411Z,23.75
2023-05-14T18:05:49.097Z,22.90
2023-05-14T18:08:16.026Z,22.00
2023-05-14T18:10:43.017Z,23.30
2023-05-14T18:13:09.937Z,23.70
2023-05-14T18:15:37.194Z,23.98
2023-05-14T18:18:04.602Z,22.83
2023-05-14T18:20:32.790Z,22.92
2023-05-14T18:23:01.436Z,22.73
2023-05-14T18:25:28.711Z,22.48
2023-05-14T18:27:55.720Z,23.10
2023-05-14T18:30:22.877Z,22.70
2023-05-14T18:32:50.266Z,22.58
2023-05-14T18:35:17.296Z,22.23
2023-05-14T18:37:44.355Z,22.48
2023-05-14T18:40:16.871Z,22.27
2023-05-14T18:42:45.426Z,22.92
2023-05-14T18:45:12.654Z,22.33
2023-05-14T18:47:40.131Z,22.35
2023-05-14T18:50:08.728Z,22.25
2023-05-14T18:52:35.784Z,21.95
2023-05-14T18:55:02.783Z,22.42
2023-05-14T18:57:32.195Z,23.60
2023-05-14T19:00:01.376Z,24.30
2023-05-14T19:02:28.916Z,26.60
2023-05-14T19:04:56.357Z,24.88
2023-05-14T19:07:23.495Z,25.13
2023-05-14T19:09:50.575Z,26.13
2023-05-14T19:12:18.663Z,25.35
2023-05-14T19:14:45.682Z,24.83
2023-05-14T19:17:12.745Z,24.48
2023-05-14T19:19:39.744Z,25.38
2023-05-14T19:22:07.474Z,24.67
2023-05-14T19:24:34.417Z,24.23
2023-05-14T19:27:01.496Z,24.35
2023-05-14T19:29:28.511Z,24.23
2023-05-14T19:31:55.657Z,24.17
2023-05-14T19:34:22.670Z,24.60
2023-05-14T19:36:50.004Z,24.55
2023-05-14T19:39:16.951Z,23.70
2023-05-14T19:41:43.962Z,24.55
2023-05-14T19:44:10.983Z,24.60
2023-05-14T19:46:38.064Z,25.33
2023-05-14T19:49:05.140Z,27.30
2023-05-14T19:51:32.096Z,26.75
2023-05-14T19:53:59.070Z,26.92
2023-05-14T19:56:27.286Z,36.75
2023-05-14T19:58:55.620Z,26.38
2023-05-14T20:01:23.227Z,26.23
2023-05-14T20:03:50.544Z,25.38
2023-05-14T20:06:18.040Z,26.23
2023-05-14T20:08:47.814Z,25.90
2023-05-14T20:11:15.875Z,24.88
2023-05-14T20:13:42.900Z,25.85
2023-05-14T20:16:09.902Z,24.40
2023-05-14T20:18:37.009Z,24.48
2023-05-14T20:21:04.369Z,25.13
2023-05-14T20:23:32.460Z,25.83
2023-05-14T20:26:01.950Z,27.25
2023-05-14T20:28:29.002Z,26.50
2023-05-14T20:30:58.960Z,27.85
2023-05-14T20:33:27.111Z,115.30
2023-05-14T20:35:54.058Z,33.10
2023-05-14T20:38:21.896Z,35.30
2023-05-14T20:40:48.962Z,27.40
2023-05-14T20:43:16.286Z,25.65
2023-05-14T20:45:43.226Z,24.40
2023-05-14T20:48:12.316Z,24.33
2023-05-14T20:50:39.703Z,23.77
2023-05-14T20:53:06.667Z,23.95
2023-05-14T20:55:33.701Z,24.10
2023-05-14T20:58:00.827Z,23.65
2023-05-14T21:00:27.784Z,26.58
2023-05-14T21:02:55.036Z,30.17
2023-05-14T21:05:22.358Z,24.05
2023-05-14T21:07:49.459Z,24.77
2023-05-14T21:10:17.186Z,25.40
2023-05-14T21:12:44.920Z,26.20
2023-05-14T21:15:12.244Z,28.23
2023-05-14T21:17:39.301Z,25.75
2023-05-14T21:20:06.955Z,25.92
2023-05-14T21:22:33.944Z,24.58
2023-05-14T21:25:00.913Z,23.60
2023-05-14T21:27:27.964Z,23.70
2023-05-14T21:29:55.943Z,23.25
2023-05-14T21:32:24.372Z,23.42
2023-05-14T21:34:51.465Z,25.05
2023-05-14T21:37:18.592Z,25.13
2023-05-14T21:39:45.910Z,24.27
2023-05-14T21:42:13.029Z,22.95
2023-05-14T21:44:40.164Z,22.77
2023-05-14T21:47:07.913Z,22.77
2023-05-14T21:49:35.610Z,23.20
2023-05-14T21:52:02.688Z,24.20
2023-05-14T21:54:29.756Z,25.23
2023-05-14T21:56:57.016Z,26.25
2023-05-14T21:59:24.015Z,25.20
2023-05-14T22:02:06.290Z,26.20
2023-05-14T22:04:34.438Z,24.88
2023-05-14T22:07:01.666Z,24.45
2023-05-14T22:09:28.996Z,23.27
2023-05-14T22:11:56.817Z,23.85
2023-05-14T22:14:23.813Z,24.20
2023-05-14T22:16:51.002Z,25.17
2023-05-14T22:19:18.112Z,25.00
2023-05-14T22:21:45.270Z,25.38
2023-05-14T22:24:12.273Z,25.40
2023-05-14T22:26:39.296Z,26.70
2023-05-14T22:29:06.361Z,26.35
2023-05-14T22:31:33.393Z,25.50
2023-05-14T22:34:00.415Z,25.10
2023-05-14T22:36:27.381Z,25.08
2023-05-14T22:38:54.310Z,25.02
2023-05-14T22:41:22.185Z,25.77
2023-05-14T22:43:49.508Z,26.17
2023-05-14T22:46:16.574Z,25.92
2023-05-14T22:48:43.576Z,26.25
2023-05-14T22:51:10.667Z,26.00
2023-05-14T22:53:37.679Z,26.25
2023-05-14T22:56:04.965Z,25.17
2023-05-14T22:58:32.279Z,25.13
2023-05-14T23:00:59.360Z,24.48
2023-05-14T23:03:26.431Z,24.75
2023-05-14T23:05:53.499Z,25.05
2023-05-14T23:08:20.477Z,24.38
2023-05-14T23:10:47.447Z,24.67
2023-05-14T23:13:14.382Z,24.08
2023-05-14T23:15:41.453Z,23.85
2023-05-14T23:18:08.707Z,24.50
2023-05-14T23:20:35.718Z,24.35
2023-05-14T23:23:02.627Z,24.25
2023-05-14T23:25:29.738Z,23.58
2023-05-14T23:27:56.736Z,24.05
2023-05-14T23:30:23.871Z,24.23
2023-05-14T23:32:50.785Z,25.08
2023-05-14T23:35:17.882Z,24.25
2023-05-14T23:37:47.574Z,24.10
2023-05-14T23:40:15.815Z,23.60
2023-05-14T23:42:43.618Z,24.17
2023-05-14T23:45:11.419Z,24.13
2023-05-14T23:47:38.591Z,24.35
2023-05-14T23:50:06.003Z,25.00
2023-05-14T23:52:33.310Z,24.08
2023-05-14T23:55:00.755Z,25.00
2023-05-14T23:57:28.009Z,25.13
2023-05-14T23:59:55.356Z,25.50
